Time;durP1;ratioP1;P1;durP2;ratioP2;P2;SDS_P1;SDS_P2;PMS_P1;PMS_P2;Temp;Humidity;BMP_temperature;BMP_pressure;BME280_temperature;BME280_humidity;BME280_pressure;Samples;Min_cycle;Max_cycle;Signal;HPM_P1;HPM_P2
2023/06/19 00:01:28;;;;;;;8.60;8.00;;;21.60;99.90;;;;;;4987127;28;20234;-72
2023/06/19 00:03:55;;;;;;;8.32;7.82;;;21.60;99.90;;;;;;4987818;28;20210;-73
2023/06/19 00:06:22;;;;;;;8.57;7.97;;;21.60;99.90;;;;;;4990909;28;20248;-73
2023/06/19 00:08:49;;;;;;;8.05;7.55;;;21.60;99.90;;;;;;4987347;28;20213;-74
2023/06/19 00:11:17;;;;;;;8.52;8.02;;;21.50;99.90;;;;;;4987233;28;20635;-73
2023/06/19 00:13:44;;;;;;;8.30;7.68;;;21.60;99.90;;;;;;4975060;28;20692;-73
2023/06/19 00:16:11;;;;;;;8.40;7.78;;;21.60;99.90;;;;;;4967644;28;20262;-73
2023/06/19 00:18:39;;;;;;;9.18;8.57;;;21.60;99.90;;;;;;4967513;28;20242;-72
2023/06/19 00:21:07;;;;;;;8.30;7.80;;;21.60;99.90;;;;;;4967944;28;20221;-72
2023/06/19 00:23:35;;;;;;;8.05;7.50;;;21.50;99.90;;;;;;4975441;28;20210;-72
2023/06/19 00:26:01;;;;;;;8.32;7.57;;;21.50;99.90;;;;;;4987284;28;20297;-73
2023/06/19 00:28:30;;;;;;;7.70;7.20;;;21.50;99.90;;;;;;4987381;28;20475;-73
2023/06/19 00:30:57;;;;;;;8.10;7.47;;;21.50;99.90;;;;;;4986923;28;20252;-73
2023/06/19 00:33:24;;;;;;;8.60;8.00;;;21.50;99.90;;;;;;4987325;28;20285;-73
2023/06/19 00:35:51;;;;;;;8.45;7.85;;;21.50;99.90;;;;;;4986937;28;20329;-74
2023/06/19 00:38:18;;;;;;;8.20;7.70;;;21.40;99.90;;;;;;4987471;28;20214;-74
2023/06/19 00:40:45;;;;;;;8.05;7.45;;;21.40;99.90;;;;;;4987004;28;20316;-72
2023/06/19 00:43:13;;;;;;;8.70;8.20;;;21.40;99.90;;;;;;4986780;28;20309;-73
2023/06/19 00:45:41;;;;;;;9.27;8.57;;;21.40;99.90;;;;;;4986511;28;20206;-72
2023/06/19 00:48:08;;;;;;;8.38;7.78;;;21.40;99.90;;;;;;4993576;28;20206;-72
2023/06/19 00:50:37;;;;;;;8.60;7.90;;;21.40;99.90;;;;;;4986724;28;20221;-72
2023/06/19 00:53:04;;;;;;;9.23;8.48;;;21.40;99.90;;;;;;4981260;28;20246;-73
2023/06/19 00:55:33;;;;;;;9.10;8.38;;;21.40;99.90;;;;;;4977316;28;20249;-74
2023/06/19 00:58:01;;;;;;;8.85;8.23;;;21.40;99.90;;;;;;4987058;28;20205;-74
2023/06/19 01:00:28;;;;;;;9.68;8.50;;;21.40;99.90;;;;;;4987023;28;20623;-74
2023/06/19 01:02:58;;;;;;;8.90;8.20;;;21.30;99.90;;;;;;4987084;28;20210;-74
2023/06/19 01:05:25;;;;;;;8.67;8.07;;;21.30;99.90;;;;;;4989097;28;20683;-74
2023/06/19 01:08:00;;;;;;;8.85;8.35;;;21.30;99.90;;;;;;5002540;28;20333;-74
2023/06/19 01:10:31;;;;;;;8.97;8.30;;;21.30;99.90;;;;;;4992603;28;20289;-74
2023/06/19 01:13:01;;;;;;;9.48;8.77;;;21.30;99.90;;;;;;4993066;28;20724;-74
2023/06/19 01:15:28;;;;;;;8.68;8.10;;;21.20;99.90;;;;;;4993281;28;20221;-74
2023/06/19 01:18:01;;;;;;;8.55;8.05;;;21.20;99.90;;;;;;4993549;28;20229;-73
2023/06/19 01:20:29;;;;;;;8.77;8.18;;;21.20;99.90;;;;;;4992370;28;20226;-74
2023/06/19 01:22:57;;;;;;;9.13;8.52;;;21.20;99.90;;;;;;4992741;28;20700;-73
2023/06/19 01:25:24;;;;;;;9.10;8.35;;;21.20;99.90;;;;;;4992902;28;20255;-73
2023/06/19 01:27:52;;;;;;;8.40;7.80;;;21.10;99.90;;;;;;4992718;28;20213;-71
2023/06/19 01:30:20;;;;;;;8.88;8.27;;;21.10;99.90;;;;;;4992586;28;20252;-71
2023/06/19 01:32:54;;;;;;;9.40;8.53;;;21.10;99.90;;;;;;4992139;28;20292;-71
2023/06/19 01:35:24;;;;;;;10.32;9.30;;;21.10;99.90;;;;;;4992633;28;20252;-72
2023/06/19 01:37:53;;;;;;;9.95;9.25;;;21.10;99.90;;;;;;4993249;28;20322;-73
2023/06/19 01:40:25;;;;;;;10.03;9.07;;;21.10;99.90;;;;;;4992032;28;20755;-73
2023/06/19 01:42:53;;;;;;;9.63;9.00;;;21.10;99.90;;;;;;4992684;28;20198;-73
2023/06/19 01:45:20;;;;;;;9.50;8.80;;;21.10;99.90;;;;;;4992296;28;20213;-73
2023/06/19 01:47:48;;;;;;;8.85;8.35;;;21.10;99.90;;;;;;4992383;28;20327;-73
2023/06/19 01:50:16;;;;;;;9.07;8.38;;;21.10;99.90;;;;;;4992571;28;20320;-73
2023/06/19 01:52:42;;;;;;;8.77;8.15;;;21.00;99.90;;;;;;4992025;28;20245;-73
2023/06/19 01:55:10;;;;;;;9.50;8.48;;;21.00;99.90;;;;;;4992279;28;20305;-73
2023/06/19 01:57:38;;;;;;;9.40;8.50;;;21.00;99.90;;;;;;4992425;28;20226;-73
2023/06/19 02:00:07;;;;;;;8.90;8.20;;;21.00;99.90;;;;;;4992255;28;20249;-73
2023/06/19 02:02:34;;;;;;;9.13;8.53;;;21.00;99.90;;;;;;4992482;28;20959;-73
2023/06/19 02:05:01;;;;;;;9.27;8.68;;;21.00;99.90;;;;;;4992748;28;20648;-74
2023/06/19 02:07:28;;;;;;;9.87;8.57;;;21.00;99.90;;;;;;4992543;28;20305;-73
2023/06/19 02:09:55;;;;;;;8.90;8.40;;;21.00;99.90;;;;;;4992700;28;20206;-74
2023/06/19 02:12:22;;;;;;;9.73;8.90;;;21.00;99.90;;;;;;4991865;28;20297;-72
2023/06/19 02:14:50;;;;;;;9.77;8.95;;;21.00;99.90;;;;;;4992307;28;20748;-72
2023/06/19 02:17:17;;;;;;;9.10;8.50;;;20.90;99.90;;;;;;4989404;28;20317;-73
2023/06/19 02:19:44;;;;;;;9.23;8.63;;;21.00;99.90;;;;;;4989498;28;20317;-72
2023/06/19 02:22:11;;;;;;;9.30;8.60;;;21.00;99.90;;;;;;4988145;28;20745;-70
2023/06/19 02:24:39;;;;;;;9.40;8.83;;;21.00;99.90;;;;;;4991721;28;20205;-71
2023/06/19 02:27:07;;;;;;;8.43;7.90;;;20.90;99.90;;;;;;4989392;28;20230;-71
2023/06/19 02:29:34;;;;;;;9.87;9.20;;;20.90;99.90;;;;;;4989338;28;20306;-72
2023/06/19 02:32:02;;;;;;;9.87;9.20;;;20.90;99.90;;;;;;4979348;28;20207;-72
2023/06/19 02:34:29;;;;;;;9.63;9.00;;;20.90;99.90;;;;;;4968264;28;20302;-72
2023/06/19 02:36:56;;;;;;;9.70;9.00;;;20.90;99.90;;;;;;4987868;28;20328;-72
2023/06/19 02:39:23;;;;;;;10.20;9.50;;;20.90;99.90;;;;;;5007000;28;20665;-73
2023/06/19 02:41:50;;;;;;;9.60;8.87;;;20.90;99.90;;;;;;4997814;28;20749;-73
2023/06/19 02:44:17;;;;;;;9.82;9.15;;;20.90;99.90;;;;;;4987006;28;20214;-73
2023/06/19 02:46:43;;;;;;;10.07;9.37;;;20.90;99.90;;;;;;4986760;28;20687;-73
2023/06/19 02:49:12;;;;;;;10.13;9.43;;;20.90;99.90;;;;;;4987015;28;20206;-73
2023/06/19 02:51:38;;;;;;;10.27;9.50;;;20.90;99.90;;;;;;4987025;28;20228;-73
2023/06/19 02:54:06;;;;;;;10.07;9.37;;;20.90;99.90;;;;;;4986554;28;20234;-72
2023/06/19 02:56:33;;;;;;;9.93;9.23;;;20.80;99.90;;;;;;4986041;28;20796;-71
2023/06/19 02:59:00;;;;;;;10.27;9.57;;;20.80;99.90;;;;;;4986717;28;20288;-72
2023/06/19 03:01:27;;;;;;;9.50;8.80;;;20.90;99.90;;;;;;4985900;28;20218;-69
2023/06/19 03:03:54;;;;;;;10.57;9.77;;;20.80;99.90;;;;;;4985582;28;20313;-70
2023/06/19 03:06:22;;;;;;;10.00;9.20;;;20.80;99.90;;;;;;4986924;28;20829;-70
2023/06/19 03:08:49;;;;;;;10.48;9.48;;;20.90;99.90;;;;;;4988235;28;20410;-70
2023/06/19 03:11:16;;;;;;;10.27;9.23;;;20.80;99.90;;;;;;4988049;28;20296;-71
2023/06/19 03:13:48;;;;;;;9.85;9.05;;;20.80;99.90;;;;;;4987760;28;20295;-70
2023/06/19 03:16:15;;;;;;;9.97;9.37;;;20.80;99.90;;;;;;4987950;28;20316;-70
2023/06/19 03:18:44;;;;;;;10.20;9.50;;;20.80;99.90;;;;;;4988190;28;20626;-70
2023/06/19 03:21:11;;;;;;;10.40;9.60;;;20.80;99.90;;;;;;4988093;28;20233;-70
2023/06/19 03:23:40;;;;;;;10.70;9.80;;;20.80;99.90;;;;;;4988055;28;20289;-70
2023/06/19 03:26:07;;;;;;;10.32;9.43;;;20.80;99.90;;;;;;4987689;28;20677;-70
2023/06/19 03:28:34;;;;;;;10.38;9.68;;;20.80;99.90;;;;;;4987343;28;20214;-70
2023/06/19 03:31:01;;;;;;;11.50;10.60;;;20.80;99.90;;;;;;4988088;28;20203;-70
2023/06/19 03:33:28;;;;;;;9.70;8.90;;;20.80;99.90;;;;;;4987895;28;20237;-70
2023/06/19 03:35:55;;;;;;;10.70;9.90;;;20.80;99.90;;;;;;4996813;28;20233;-70
2023/06/19 03:38:22;;;;;;;10.32;9.63;;;20.80;99.90;;;;;;4995708;28;20768;-70
2023/06/19 03:40:50;;;;;;;10.57;9.87;;;20.80;99.90;;;;;;4987420;28;20298;-70
2023/06/19 03:43:17;;;;;;;10.83;10.03;;;20.80;99.90;;;;;;4987523;28;20252;-70
2023/06/19 03:45:44;;;;;;;10.83;10.13;;;20.80;99.90;;;;;;4987076;28;20210;-70
2023/06/19 03:48:11;;;;;;;10.47;9.70;;;20.80;99.90;;;;;;4987334;28;20646;-70
2023/06/19 03:50:38;;;;;;;10.23;9.50;;;20.80;99.90;;;;;;4987208;28;20894;-70
2023/06/19 03:53:05;;;;;;;10.47;9.57;;;20.80;99.90;;;;;;4987080;28;20324;-70
2023/06/19 03:55:32;;;;;;;10.60;9.80;;;20.80;99.90;;;;;;4986917;28;20947;-70
2023/06/19 03:58:00;;;;;;;12.13;10.33;;;20.80;99.90;;;;;;4967856;28;20242;-70
2023/06/19 04:00:27;;;;;;;10.47;9.77;;;20.80;99.90;;;;;;4967734;28;20226;-70
2023/06/19 04:02:54;;;;;;;10.60;9.90;;;20.70;99.90;;;;;;4967827;28;20749;-70
2023/06/19 04:05:21;;;;;;;10.63;9.88;;;20.80;99.90;;;;;;4967773;28;20289;-70
2023/06/19 04:07:48;;;;;;;10.53;9.53;;;20.80;99.90;;;;;;5001950;28;20221;-70
2023/06/19 04:10:15;;;;;;;11.45;10.40;;;20.80;99.90;;;;;;5006755;28;20319;-70
2023/06/19 04:12:42;;;;;;;11.00;10.23;;;20.70;99.90;;;;;;5006366;28;20659;-70
2023/06/19 04:15:11;;;;;;;10.43;9.63;;;20.80;99.90;;;;;;5006298;28;20707;-70
2023/06/19 04:17:38;;;;;;;11.88;10.40;;;20.80;99.90;;;;;;5006262;28;20314;-70
2023/06/19 04:20:10;;;;;;;10.53;9.73;;;20.80;99.90;;;;;;5006396;28;20307;-70
2023/06/19 04:22:37;;;;;;;10.50;9.70;;;20.80;99.90;;;;;;5005479;28;20657;-70
2023/06/19 04:25:05;;;;;;;10.20;9.50;;;20.80;99.90;;;;;;4987008;28;20218;-69
2023/06/19 04:27:32;;;;;;;10.30;9.60;;;20.80;99.90;;;;;;4986541;28;20301;-70
2023/06/19 04:29:59;;;;;;;10.73;10.07;;;20.80;99.90;;;;;;4986082;28;20852;-70
2023/06/19 04:32:27;;;;;;;10.77;10.07;;;20.80;99.90;;;;;;4997670;28;20205;-70
2023/06/19 04:34:54;;;;;;;11.47;10.67;;;20.90;99.90;;;;;;4992887;28;20214;-70
2023/06/19 04:37:21;;;;;;;11.17;10.33;;;20.90;99.90;;;;;;4999864;28;20332;-70
2023/06/19 04:39:48;;;;;;;11.43;10.67;;;20.80;99.90;;;;;;5005773;28;20638;-70
2023/06/19 04:42:19;;;;;;;11.07;10.30;;;20.80;99.90;;;;;;4996826;28;20245;-70
2023/06/19 04:44:46;;;;;;;11.53;10.73;;;20.80;99.90;;;;;;4986202;28;20712;-70
2023/06/19 04:47:13;;;;;;;11.20;10.43;;;20.80;99.90;;;;;;4985930;28;20732;-70
2023/06/19 04:49:41;;;;;;;10.70;9.77;;;20.80;99.90;;;;;;4986777;28;20296;-70
2023/06/19 04:52:08;;;;;;;11.40;10.50;;;20.80;99.90;;;;;;4986246;28;20292;-70
2023/06/19 04:54:35;;;;;;;10.48;9.77;;;20.80;99.90;;;;;;4984278;28;20313;-70
2023/06/19 04:57:02;;;;;;;11.00;10.00;;;20.80;99.90;;;;;;4967057;28;20238;-70
2023/06/19 04:59:30;;;;;;;11.30;10.50;;;20.80;99.90;;;;;;4967208;28;20221;-70
2023/06/19 05:01:57;;;;;;;10.80;9.80;;;20.80;99.90;;;;;;4966644;28;20229;-70
2023/06/19 05:04:24;;;;;;;11.35;10.23;;;20.80;99.90;;;;;;4966741;28;20222;-70
2023/06/19 05:06:52;;;;;;;11.50;10.63;;;20.80;99.90;;;;;;4979515;28;20328;-70
2023/06/19 05:09:19;;;;;;;11.17;10.27;;;20.90;99.90;;;;;;4985864;28;20676;-70
2023/06/19 05:11:46;;;;;;;10.63;9.83;;;20.80;99.90;;;;;;4985695;28;20214;-70
2023/06/19 05:14:14;;;;;;;11.65;10.85;;;20.90;99.90;;;;;;4985959;28;20300;-70
2023/06/19 05:16:41;;;;;;;11.13;10.43;;;20.90;99.90;;;;;;4985528;28;20242;-70
2023/06/19 05:19:08;;;;;;;10.80;10.00;;;20.90;99.90;;;;;;4985908;28;20385;-70
2023/06/19 05:21:35;;;;;;;10.93;10.13;;;20.90;99.90;;;;;;4986005;28;20626;-70
2023/06/19 05:24:03;;;;;;;11.30;10.25;;;20.90;99.90;;;;;;4985739;28;20578;-70
2023/06/19 05:26:30;;;;;;;11.70;10.80;;;20.90;99.90;;;;;;4985966;28;20991;-70
2023/06/19 05:28:57;;;;;;;11.00;10.20;;;20.90;99.90;;;;;;4999498;28;20316;-70
2023/06/19 05:31:24;;;;;;;11.85;10.82;;;20.90;99.90;;;;;;4990201;28;20666;-70
2023/06/19 05:33:51;;;;;;;10.60;9.90;;;21.00;99.90;;;;;;4986018;28;20261;-70
2023/06/19 05:36:18;;;;;;;10.30;9.60;;;21.00;99.90;;;;;;4990896;28;20263;-71
2023/06/19 05:38:45;;;;;;;10.82;10.02;;;21.00;99.90;;;;;;5004949;28;20248;-70
2023/06/19 05:41:15;;;;;;;10.33;9.63;;;21.00;99.90;;;;;;5005119;28;20304;-70
2023/06/19 05:43:43;;;;;;;10.57;9.75;;;21.00;99.90;;;;;;4985646;28;20218;-70
2023/06/19 05:46:10;;;;;;;10.63;9.80;;;21.00;99.90;;;;;;4985880;28;20218;-70
2023/06/19 05:48:37;;;;;;;10.90;10.17;;;21.10;99.90;;;;;;4985643;28;20228;-70
2023/06/19 05:51:04;;;;;;;10.83;10.07;;;21.10;99.90;;;;;;4986523;28;20297;-70
2023/06/19 05:53:31;;;;;;;11.03;10.13;;;21.10;99.90;;;;;;4989454;28;20269;-70
2023/06/19 05:55:59;;;;;;;10.73;10.03;;;21.20;99.90;;;;;;4976447;28;20226;-71
2023/06/19 05:58:27;;;;;;;11.70;10.80;;;21.20;99.90;;;;;;4970198;28;20239;-70
2023/06/19 06:00:58;;;;;;;10.88;10.07;;;21.20;99.90;;;;;;4969809;28;20310;-70
2023/06/19 06:03:25;;;;;;;10.50;9.80;;;21.20;99.90;;;;;;4969766;28;20705;-70
2023/06/19 06:05:52;;;;;;;11.30;10.40;;;21.20;99.90;;;;;;4971558;28;20981;-70
2023/06/19 06:08:19;;;;;;;10.87;9.97;;;21.20;99.90;;;;;;4989184;28;20749;-70
2023/06/19 06:10:46;;;;;;;11.00;10.10;;;21.20;99.90;;;;;;4988610;28;20217;-70
2023/06/19 06:13:13;;;;;;;10.30;9.55;;;21.20;99.90;;;;;;4989308;28;20206;-70
2023/06/19 06:15:41;;;;;;;11.37;10.57;;;21.30;99.90;;;;;;4988889;28;20268;-70
2023/06/19 06:18:08;;;;;;;11.45;10.63;;;21.30;99.90;;;;;;4988916;28;20324;-70
2023/06/19 06:20:35;;;;;;;10.50;9.70;;;21.30;99.90;;;;;;4989009;28;20527;-70
2023/06/19 06:23:03;;;;;;;10.97;10.27;;;21.40;99.90;;;;;;4988943;28;20289;-70
2023/06/19 06:25:30;;;;;;;11.05;10.18;;;21.40;99.90;;;;;;4979661;28;20214;-70
2023/06/19 06:27:57;;;;;;;10.80;10.00;;;21.30;99.90;;;;;;4986877;28;20605;-70
2023/06/19 06:30:24;;;;;;;10.85;9.93;;;21.20;99.90;;;;;;4988339;28;20301;-70
2023/06/19 06:32:52;;;;;;;10.80;9.93;;;21.20;99.90;;;;;;4980923;28;20210;-70
2023/06/19 06:35:19;;;;;;;10.63;9.73;;;21.20;99.90;;;;;;4969578;28;20311;-70
2023/06/19 06:37:49;;;;;;;10.40;9.70;;;21.30;99.90;;;;;;4986124;28;20317;-70
2023/06/19 06:40:16;;;;;;;10.65;9.95;;;21.30;99.90;;;;;;4988650;28;20696;-70
2023/06/19 06:42:43;;;;;;;10.63;9.85;;;21.40;99.90;;;;;;4988511;28;20298;-70
2023/06/19 06:45:10;;;;;;;10.60;9.80;;;21.40;99.90;;;;;;4988526;28;20210;-70
2023/06/19 06:47:37;;;;;;;10.48;9.68;;;21.40;99.90;;;;;;4988257;28;20237;-70
2023/06/19 06:50:07;;;;;;;11.05;10.07;;;21.50;99.90;;;;;;4988784;28;20284;-70
2023/06/19 06:52:34;;;;;;;11.37;10.40;;;21.50;99.90;;;;;;4988348;28;20724;-70
2023/06/19 06:55:00;;;;;;;10.75;9.82;;;21.60;99.90;;;;;;4982831;28;20721;-70
2023/06/19 06:57:27;;;;;;;11.77;10.68;;;21.60;99.90;;;;;;4968697;28;20236;-70
2023/06/19 06:59:54;;;;;;;10.87;9.73;;;21.60;99.90;;;;;;4968600;28;20297;-70
2023/06/19 07:02:21;;;;;;;10.25;9.48;;;21.60;99.90;;;;;;4968593;28;20245;-70
2023/06/19 07:04:48;;;;;;;9.95;9.35;;;21.70;99.90;;;;;;4968222;28;20289;-70
2023/06/19 07:07:16;;;;;;;10.43;9.70;;;21.70;99.90;;;;;;4996704;28;20304;-70
2023/06/19 07:09:43;;;;;;;10.63;9.75;;;21.80;99.90;;;;;;5007722;28;20300;-70
2023/06/19 07:12:10;;;;;;;10.60;9.80;;;21.60;99.90;;;;;;5007444;28;20681;-70
2023/06/19 07:14:37;;;;;;;10.23;9.43;;;21.70;99.90;;;;;;5007588;28;21120;-70
2023/06/19 07:17:06;;;;;;;10.60;9.80;;;21.80;99.90;;;;;;5007156;28;20846;-70
2023/06/19 07:19:33;;;;;;;10.85;10.05;;;21.80;99.90;;;;;;5007427;28;20683;-70
2023/06/19 07:22:00;;;;;;;10.50;9.80;;;21.90;99.90;;;;;;5007449;28;20212;-70
2023/06/19 07:24:28;;;;;;;11.27;10.23;;;21.90;99.90;;;;;;4987749;28;20206;-70
2023/06/19 07:26:56;;;;;;;10.32;9.32;;;21.90;99.90;;;;;;4987682;28;20206;-70
2023/06/19 07:29:23;;;;;;;10.68;9.77;;;22.00;99.90;;;;;;4987253;28;20647;-70
2023/06/19 07:31:50;;;;;;;11.43;10.27;;;22.10;99.90;;;;;;4987813;28;20209;-70
2023/06/19 07:34:17;;;;;;;10.85;10.07;;;22.10;99.90;;;;;;4987351;28;20242;-70
2023/06/19 07:36:44;;;;;;;11.07;10.20;;;22.20;99.90;;;;;;4996266;28;20220;-70
2023/06/19 07:39:11;;;;;;;11.18;10.27;;;22.20;99.90;;;;;;5007319;28;20294;-70
2023/06/19 07:41:39;;;;;;;11.10;10.18;;;22.30;99.90;;;;;;4998421;28;20217;-70
2023/06/19 07:44:06;;;;;;;10.75;9.95;;;22.40;99.90;;;;;;4987405;28;20293;-70
2023/06/19 07:46:33;;;;;;;9.73;9.13;;;22.40;99.90;;;;;;4987155;28;20361;-70
2023/06/19 07:49:00;;;;;;;9.93;9.13;;;22.40;99.90;;;;;;4987009;28;20751;-70
2023/06/19 07:51:26;;;;;;;10.10;9.48;;;22.40;99.90;;;;;;4987324;28;20292;-70
2023/06/19 07:53:53;;;;;;;10.75;9.90;;;22.50;99.90;;;;;;4986918;28;20321;-70
2023/06/19 07:56:20;;;;;;;10.57;9.70;;;22.50;99.90;;;;;;4987096;28;20325;-70
2023/06/19 07:58:48;;;;;;;9.65;8.90;;;22.50;99.90;;;;;;4987065;28;20688;-70
2023/06/19 08:01:15;;;;;;;10.05;9.35;;;22.50;99.90;;;;;;4987204;28;20314;-70
2023/06/19 08:03:43;;;;;;;9.95;9.15;;;22.50;99.90;;;;;;5004418;28;20201;-70
2023/06/19 08:06:10;;;;;;;10.07;9.27;;;22.50;99.90;;;;;;5006978;28;20217;-70
2023/06/19 08:08:36;;;;;;;9.80;9.00;;;22.60;99.90;;;;;;5006889;28;20666;-70
2023/06/19 08:11:03;;;;;;;9.10;8.60;;;22.60;99.90;;;;;;5006824;28;20213;-70
2023/06/19 08:13:30;;;;;;;9.65;9.05;;;22.60;99.90;;;;;;5007003;28;20214;-70
2023/06/19 08:15:59;;;;;;;11.50;10.55;;;22.50;99.90;;;;;;5005738;28;20236;-70
2023/06/19 08:18:25;;;;;;;12.05;11.15;;;22.50;99.90;;;;;;4986503;28;20331;-70
2023/06/19 08:20:52;;;;;;;11.18;10.18;;;22.50;99.90;;;;;;4986802;28;20755;-70
2023/06/19 08:23:19;;;;;;;10.05;9.32;;;22.50;99.90;;;;;;4980712;28;20242;-70
2023/06/19 08:25:46;;;;;;;10.27;9.48;;;22.50;99.90;;;;;;4978965;28;20304;-70
2023/06/19 08:28:13;;;;;;;10.00;9.23;;;22.50;99.90;;;;;;4986875;28;20224;-70
2023/06/19 08:30:40;;;;;;;9.77;8.98;;;22.50;99.90;;;;;;4986878;28;20246;-70
2023/06/19 08:33:09;;;;;;;9.63;8.82;;;22.50;99.90;;;;;;4986771;28;20237;-70
2023/06/19 08:35:35;;;;;;;10.13;9.23;;;22.50;99.90;;;;;;4986795;28;20589;-70
2023/06/19 08:38:02;;;;;;;10.02;9.20;;;22.50;99.90;;;;;;4995846;28;20333;-70
2023/06/19 08:40:29;;;;;;;9.77;9.07;;;22.50;99.90;;;;;;4986840;28;20210;-70
2023/06/19 08:42:57;;;;;;;9.73;8.82;;;22.60;99.90;;;;;;4986254;28;20739;-70
2023/06/19 08:45:23;;;;;;;9.80;8.80;;;22.60;99.90;;;;;;4986436;28;20320;-70
2023/06/19 08:47:50;;;;;;;9.88;9.10;;;22.70;99.90;;;;;;4986827;28;20300;-70
2023/06/19 08:50:20;;;;;;;9.15;8.55;;;22.80;99.90;;;;;;4986448;28;20618;-71
2023/06/19 08:52:46;;;;;;;9.70;9.00;;;22.80;99.90;;;;;;4986082;28;20328;-70
2023/06/19 08:55:13;;;;;;;9.45;8.60;;;22.90;99.90;;;;;;4979303;28;20266;-71
2023/06/19 08:57:40;;;;;;;10.30;9.50;;;23.00;99.90;;;;;;4966824;28;20231;-69
2023/06/19 09:00:10;;;;;;;9.32;8.63;;;23.00;99.90;;;;;;4985187;28;20668;-70
2023/06/19 09:02:44;;;;;;;11.18;9.45;;;23.00;99.90;;;;;;4986462;28;20210;-70
2023/06/19 09:05:16;;;;;;;9.25;8.73;;;23.00;99.90;;;;;;4986419;28;20221;-70
2023/06/19 09:07:45;;;;;;;9.80;9.00;;;23.00;99.90;;;;;;4986818;28;20289;-70
2023/06/19 09:10:17;;;;;;;10.00;9.20;;;23.00;99.90;;;;;;4986709;28;20299;-70
2023/06/19 09:12:44;;;;;;;10.23;9.38;;;23.00;99.90;;;;;;4989814;28;20198;-70
2023/06/19 09:15:15;;;;;;;9.20;8.60;;;23.00;99.90;;;;;;5000841;28;20235;-70
2023/06/19 09:17:44;;;;;;;10.57;9.88;;;23.00;99.90;;;;;;4985957;28;20608;-70
2023/06/19 09:20:11;;;;;;;16.58;15.27;;;23.00;99.90;;;;;;4986060;28;20629;-70
2023/06/19 09:22:39;;;;;;;11.65;10.75;;;22.90;99.90;;;;;;4985776;28;20206;-70
2023/06/19 09:25:10;;;;;;;10.82;10.02;;;22.90;99.90;;;;;;4986349;28;20584;-70
2023/06/19 09:27:37;;;;;;;11.18;10.10;;;22.90;99.90;;;;;;4988825;28;20214;-71
2023/06/19 09:30:06;;;;;;;10.63;9.85;;;22.90;99.90;;;;;;4990314;28;20249;-70
2023/06/19 09:32:32;;;;;;;9.73;9.13;;;22.90;99.90;;;;;;4990080;28;20220;-70
2023/06/19 09:34:59;;;;;;;10.27;9.48;;;23.00;99.90;;;;;;5005606;28;20324;-70
2023/06/19 09:37:27;;;;;;;10.57;9.77;;;23.00;99.90;;;;;;5009676;28;20209;-70
2023/06/19 09:39:57;;;;;;;10.40;9.70;;;23.10;99.90;;;;;;5009703;28;20212;-70
2023/06/19 09:42:29;;;;;;;10.93;10.07;;;23.10;99.90;;;;;;5009295;28;20209;-70
2023/06/19 09:45:01;;;;;;;12.05;11.15;;;23.20;99.90;;;;;;5009038;28;20194;-70
2023/06/19 09:47:31;;;;;;;11.98;10.98;;;23.20;99.90;;;;;;5009296;28;20198;-70
2023/06/19 09:49:59;;;;;;;11.45;10.65;;;23.20;99.90;;;;;;5008939;28;20727;-70
2023/06/19 09:52:27;;;;;;;10.43;9.68;;;23.30;99.90;;;;;;5008791;28;20328;-70
2023/06/19 09:54:56;;;;;;;11.18;10.07;;;23.30;99.90;;;;;;5004221;28;20813;-70
2023/06/19 09:57:23;;;;;;;11.55;10.75;;;23.30;99.90;;;;;;4989278;28;20673;-70
2023/06/19 09:59:56;;;;;;;11.77;10.27;;;23.40;99.90;;;;;;4989183;28;20783;-70
2023/06/19 10:02:24;;;;;;;10.77;10.00;;;23.40;99.90;;;;;;4989476;28;20899;-70
2023/06/19 10:04:52;;;;;;;12.10;11.05;;;23.40;99.90;;;;;;4989292;28;20224;-70
2023/06/19 10:07:20;;;;;;;11.10;10.32;;;23.40;99.90;;;;;;5002773;28;20300;-70
2023/06/19 10:10:01;;;;;;;10.93;10.07;;;23.40;99.90;;;;;;5008886;28;20335;-70
2023/06/19 10:12:42;;;;;;;10.68;9.80;;;23.40;99.90;;;;;;4995619;28;20212;-70
2023/06/19 10:15:17;;;;;;;11.10;10.20;;;23.40;99.90;;;;;;4988867;28;20305;-70
2023/06/19 10:17:46;;;;;;;11.57;10.68;;;23.40;99.90;;;;;;4989055;28;20216;-70
2023/06/19 10:20:31;;;;;;;11.93;11.00;;;23.40;99.90;;;;;;4988743;28;20677;-70
2023/06/19 10:23:01;;;;;;;10.60;9.85;;;23.40;99.90;;;;;;4985664;28;20257;-70
2023/06/19 10:25:33;;;;;;;11.25;10.25;;;23.50;99.90;;;;;;4978420;28;20217;-70
2023/06/19 10:28:00;;;;;;;10.75;9.98;;;23.50;99.90;;;;;;4988699;28;20202;-70
2023/06/19 10:30:30;;;;;;;11.65;10.82;;;23.50;99.90;;;;;;4988243;28;20216;-69
2023/06/19 10:32:57;;;;;;;13.90;12.65;;;23.60;99.90;;;;;;4989083;28;20293;-70
2023/06/19 10:35:25;;;;;;;11.88;10.57;;;23.60;99.90;;;;;;4988977;28;20214;-70
2023/06/19 10:37:52;;;;;;;12.60;10.50;;;23.70;99.90;;;;;;4987982;28;20285;-70
2023/06/19 10:40:19;;;;;;;11.15;10.27;;;23.70;99.90;;;;;;4988585;28;20237;-70
2023/06/19 10:42:47;;;;;;;11.27;10.30;;;23.80;99.90;;;;;;4988741;28;20210;-70
2023/06/19 10:45:17;;;;;;;11.48;10.48;;;23.80;99.90;;;;;;4988531;28;20233;-70
2023/06/19 10:47:45;;;;;;;11.60;10.75;;;23.90;99.90;;;;;;4988823;28;20845;-70
2023/06/19 10:50:13;;;;;;;11.35;10.45;;;23.90;99.90;;;;;;4988179;28;20209;-70
2023/06/19 10:52:45;;;;;;;10.90;10.10;;;24.00;99.90;;;;;;4987707;28;20950;-70
2023/06/19 10:55:13;;;;;;;11.32;10.32;;;24.10;99.90;;;;;;4988534;28;20316;-70
2023/06/19 10:57:40;;;;;;;11.10;10.35;;;24.10;99.90;;;;;;4988266;28;20629;-70
2023/06/19 11:00:12;;;;;;;11.57;10.60;;;24.10;99.90;;;;;;4987943;28;20276;-70
2023/06/19 11:02:43;;;;;;;11.10;10.20;;;24.10;99.90;;;;;;4987965;28;20195;-70
2023/06/19 11:05:12;;;;;;;11.00;10.20;;;24.10;99.90;;;;;;4990940;28;20205;-70
2023/06/19 11:07:39;;;;;;;11.07;10.27;;;24.20;99.90;;;;;;4991346;28;20214;-70
2023/06/19 11:10:07;;;;;;;10.98;10.13;;;24.20;99.90;;;;;;4987771;28;20210;-70
2023/06/19 11:12:34;;;;;;;10.10;9.38;;;24.20;99.90;;;;;;4987613;28;20214;-70
2023/06/19 11:15:05;;;;;;;12.23;11.02;;;24.20;99.90;;;;;;4987588;28;20658;-70
2023/06/19 11:17:33;;;;;;;10.95;10.02;;;24.30;99.90;;;;;;4988132;28;20253;-70
2023/06/19 11:20:00;;;;;;;10.73;9.82;;;24.30;99.90;;;;;;4987712;28;21028;-70
2023/06/19 11:22:40;;;;;;;11.02;10.07;;;24.40;99.90;;;;;;4987873;28;20209;-70
2023/06/19 11:25:08;;;;;;;11.13;10.27;;;24.40;99.90;;;;;;4974927;28;20206;-70
2023/06/19 11:27:37;;;;;;;10.45;9.75;;;24.60;99.90;;;;;;4987818;28;20307;-70
2023/06/19 11:30:07;;;;;;;10.75;9.70;;;24.70;99.90;;;;;;4987789;28;20219;-70
2023/06/19 11:32:40;;;;;;;10.93;10.10;;;24.80;99.90;;;;;;4987320;28;20748;-70
2023/06/19 11:35:09;;;;;;;10.50;9.77;;;24.90;99.90;;;;;;4987442;28;20257;-70
2023/06/19 11:37:38;;;;;;;9.90;9.20;;;25.00;99.90;;;;;;4987069;28;20313;-70
2023/06/19 11:40:12;;;;;;;9.82;9.00;;;25.10;99.90;;;;;;4987492;28;20325;-70
2023/06/19 11:42:53;;;;;;;9.65;8.98;;;25.20;99.90;;;;;;4987287;28;20225;-70
2023/06/19 11:45:21;;;;;;;10.18;9.27;;;25.30;99.90;;;;;;4987445;28;20296;-70
2023/06/19 11:47:50;;;;;;;11.20;10.25;;;25.40;99.90;;;;;;4987470;28;20253;-71
2023/06/19 11:50:19;;;;;;;13.52;12.30;;;25.60;99.90;;;;;;4987003;28;20249;-70
2023/06/19 11:52:47;;;;;;;20.02;9.93;;;25.60;99.90;;;;;;4986897;28;20571;-70
2023/06/19 11:55:15;;;;;;;10.15;9.25;;;25.70;99.90;;;;;;4987789;28;20238;-70
2023/06/19 11:57:43;;;;;;;10.02;9.23;;;25.80;99.90;;;;;;4987353;28;20217;-70
2023/06/19 12:00:16;;;;;;;10.40;9.48;;;25.80;99.90;;;;;;4987201;28;20722;-70
2023/06/19 12:02:44;;;;;;;10.45;9.50;;;25.90;99.90;;;;;;5000331;28;20220;-70
2023/06/19 12:05:11;;;;;;;9.65;8.95;;;26.00;99.90;;;;;;4991122;28;20276;-70
2023/06/19 12:07:39;;;;;;;10.45;9.57;;;26.10;99.90;;;;;;4987015;28;20206;-70
2023/06/19 12:10:11;;;;;;;9.85;9.05;;;26.30;99.90;;;;;;4986928;28;20214;-71
2023/06/19 12:12:38;;;;;;;9.38;8.77;;;26.40;99.90;;;;;;4986763;28;20201;-70
2023/06/19 12:15:07;;;;;;;9.68;9.07;;;26.50;99.90;;;;;;4985682;28;20312;-70
2023/06/19 12:17:33;;;;;;;10.35;9.55;;;26.60;99.90;;;;;;4972885;28;20211;-70
2023/06/19 12:20:01;;;;;;;9.68;8.88;;;26.70;99.90;;;;;;4987181;28;20333;-70
2023/06/19 12:22:28;;;;;;;10.02;9.23;;;26.90;99.90;;;;;;4986838;28;20342;-70
2023/06/19 12:24:55;;;;;;;9.73;9.02;;;27.00;99.90;;;;;;4967829;28;20211;-70
2023/06/19 12:27:23;;;;;;;10.43;9.73;;;27.30;99.90;;;;;;4967451;28;20242;-70
2023/06/19 12:29:50;;;;;;;9.55;8.80;;;27.50;99.90;;;;;;4967579;28;20293;-70
2023/06/19 12:32:17;;;;;;;11.20;8.38;;;27.70;99.90;;;;;;4967617;28;20298;-70
2023/06/19 12:34:46;;;;;;;9.70;8.77;;;27.90;99.40;;;;;;4967393;28;20305;-70
2023/06/19 12:37:14;;;;;;;9.05;8.50;;;28.00;98.60;;;;;;4991711;28;20308;-70
2023/06/19 12:39:41;;;;;;;8.85;8.25;;;28.00;98.70;;;;;;5005891;28;20316;-70
2023/06/19 12:42:08;;;;;;;8.77;8.15;;;28.00;98.90;;;;;;5005821;28;20207;-70